Time;durP1;ratioP1;P1;durP2;ratioP2;P2;SDS_P1;SDS_P2;PMS_P1;PMS_P2;Temp;Humidity;BMP_temperature;BMP_pressure;BME280_temperature;BME280_humidity;BME280_pressure;Samples;Min_cycle;Max_cycle;Signal;HPM_P1;HPM_P2
2023/01/18 00:00:27;;;;;;;44.73;17.93;;;;;;;;;;5012613;28;20033;-78
2023/01/18 00:02:53;;;;;;;44.23;17.50;;;;;;;;;;5013610;28;20185;-78
2023/01/18 00:05:21;;;;;;;42.33;16.50;;;;;;;;;;4995289;28;20025;-78
2023/01/18 00:07:46;;;;;;;39.73;16.77;;;;;;;;;;5013565;28;20022;-78
2023/01/18 00:10:11;;;;;;;41.00;16.70;;;;;;;;;;4995540;28;20378;-78
2023/01/18 00:12:37;;;;;;;44.73;17.33;;;;;;;;;;4995149;28;20057;-78
2023/01/18 00:15:02;;;;;;;43.07;16.63;;;;;;;;;;4995299;28;20041;-78
2023/01/18 00:17:27;;;;;;;38.60;16.87;;;;;;;;;;4995347;28;20397;-78
2023/01/18 00:19:52;;;;;;;36.77;16.53;;;;;;;;;;5013758;28;20523;-78
2023/01/18 00:22:18;;;;;;;40.17;16.13;;;;;;;;;;4995417;28;20073;-78
2023/01/18 00:24:43;;;;;;;36.20;15.20;;;;;;;;;;5012013;28;20152;-78
2023/01/18 00:27:08;;;;;;;36.17;14.80;;;;;;;;;;5013167;28;20018;-78
2023/01/18 00:29:34;;;;;;;33.90;14.23;;;;;;;;;;5012717;28;20038;-78
2023/01/18 00:31:59;;;;;;;37.53;15.37;;;;;;;;;;5013023;28;20018;-78
2023/01/18 00:34:27;;;;;;;33.13;14.03;;;;;;;;;;5012729;28;20026;-78
2023/01/18 00:36:52;;;;;;;33.80;15.00;;;;;;;;;;5012271;28;20396;-78
2023/01/18 00:39:17;;;;;;;32.40;14.70;;;;;;;;;;5011811;28;20097;-77
2023/01/18 00:43:37;;;;;;;37.70;15.17;;;;;;;;;;4995167;28;20014;-78
2023/01/18 00:44:27;;;;;;;32.80;13.67;;;;;;;;;;5011830;28;20076;-78
2023/01/18 00:46:54;;;;;;;33.03;14.60;;;;;;;;;;5012877;28;20030;-78
2023/01/18 00:49:20;;;;;;;42.80;14.80;;;;;;;;;;4993992;28;20018;-78
2023/01/18 00:51:45;;;;;;;41.57;15.20;;;;;;;;;;5012583;28;20010;-78
2023/01/18 00:54:10;;;;;;;40.73;15.83;;;;;;;;;;5012782;28;20382;-78
2023/01/18 00:56:35;;;;;;;37.93;15.00;;;;;;;;;;4994724;28;20117;-78
2023/01/18 00:59:01;;;;;;;37.23;13.50;;;;;;;;;;4994457;28;20032;-78
2023/01/18 01:01:26;;;;;;;36.83;13.90;;;;;;;;;;4994408;28;20026;-78
2023/01/18 01:06:44;;;;;;;46.33;16.80;;;;;;;;;;5012455;28;20503;-78
2023/01/18 01:09:29;;;;;;;45.97;17.37;;;;;;;;;;5012126;28;20421;-78
2023/01/18 01:26:09;;;;;;;36.43;14.87;;;;;;;;;;5009972;28;20072;-78
2023/01/18 01:28:37;;;;;;;40.27;15.40;;;;;;;;;;4993875;28;20029;-78
2023/01/18 01:31:03;;;;;;;39.93;15.67;;;;;;;;;;5012023;28;20027;-78
2023/01/18 01:33:29;;;;;;;37.10;14.97;;;;;;;;;;4994091;28;20025;-78
2023/01/18 01:35:58;;;;;;;26.80;13.43;;;;;;;;;;5012123;28;20064;-78
2023/01/18 01:38:26;;;;;;;39.43;15.43;;;;;;;;;;4993714;28;20033;-78
2023/01/18 01:40:58;;;;;;;39.87;16.00;;;;;;;;;;5012255;28;20040;-78
2023/01/18 01:43:35;;;;;;;37.85;15.15;;;;;;;;;;4994092;28;20026;-78
2023/01/18 01:46:01;;;;;;;36.13;15.03;;;;;;;;;;4993688;28;20463;-78
2023/01/18 01:48:29;;;;;;;40.07;14.83;;;;;;;;;;5010908;28;20034;-78
2023/01/18 01:50:55;;;;;;;41.20;15.10;;;;;;;;;;5011176;28;20473;-78
2023/01/18 01:53:20;;;;;;;35.43;13.43;;;;;;;;;;5011596;28;20113;-78
2023/01/18 01:55:45;;;;;;;35.33;14.53;;;;;;;;;;4994030;28;20132;-78
2023/01/18 01:58:19;;;;;;;31.87;12.83;;;;;;;;;;4993510;28;20109;-78
2023/01/18 02:00:45;;;;;;;33.77;13.83;;;;;;;;;;5010000;28;20026;-78
2023/01/18 02:03:11;;;;;;;33.30;13.30;;;;;;;;;;4993823;28;20044;-78
2023/01/18 02:05:42;;;;;;;33.60;13.90;;;;;;;;;;4993999;28;20014;-78
2023/01/18 02:08:10;;;;;;;34.00;12.83;;;;;;;;;;4993457;28;20025;-78
2023/01/18 02:10:35;;;;;;;30.50;11.87;;;;;;;;;;5011054;28;20061;-78
2023/01/18 02:13:00;;;;;;;28.40;11.30;;;;;;;;;;5010939;28;20076;-78
2023/01/18 02:15:29;;;;;;;25.37;10.87;;;;;;;;;;4993869;28;20022;-78
2023/01/18 02:17:58;;;;;;;30.90;11.97;;;;;;;;;;5011572;28;20025;-78
2023/01/18 02:20:42;;;;;;;28.33;11.57;;;;;;;;;;4993590;28;20176;-78
2023/01/18 02:23:19;;;;;;;35.57;11.77;;;;;;;;;;5011762;28;20010;-78
2023/01/18 02:25:59;;;;;;;34.37;12.80;;;;;;;;;;4993129;28;20331;-78
2023/01/18 02:28:38;;;;;;;27.17;11.40;;;;;;;;;;4988841;28;20572;-78
2023/01/18 02:31:03;;;;;;;26.13;11.70;;;;;;;;;;4993696;28;20018;-78
2023/01/18 02:33:43;;;;;;;26.77;11.50;;;;;;;;;;4993282;28;20029;-78
2023/01/18 02:36:09;;;;;;;30.17;12.60;;;;;;;;;;4993604;28;20029;-78
2023/01/18 02:38:40;;;;;;;30.27;12.73;;;;;;;;;;4992063;28;20061;-78
2023/01/18 02:41:05;;;;;;;34.53;12.50;;;;;;;;;;4993469;28;20396;-78
2023/01/18 02:46:32;;;;;;;29.60;10.63;;;;;;;;;;5009549;28;20044;-78
2023/01/18 02:49:00;;;;;;;28.33;11.27;;;;;;;;;;5010236;28;20022;-78
2023/01/18 02:51:25;;;;;;;25.53;10.57;;;;;;;;;;4992897;28;20552;-78
2023/01/18 02:53:50;;;;;;;30.67;11.87;;;;;;;;;;4993531;28;20052;-78
2023/01/18 02:56:18;;;;;;;25.27;11.50;;;;;;;;;;5011206;28;20017;-78
2023/01/18 02:59:10;;;;;;;26.90;11.03;;;;;;;;;;5011061;28;20076;-78
2023/01/18 03:01:39;;;;;;;29.63;11.37;;;;;;;;;;4964102;28;20508;-78
2023/01/18 03:04:11;;;;;;;27.30;11.30;;;;;;;;;;4997069;28;20022;-78
2023/01/18 03:06:38;;;;;;;26.88;11.85;;;;;;;;;;4997238;28;20033;-78
2023/01/18 03:09:03;;;;;;;31.50;12.50;;;;;;;;;;5014491;28;20029;-78
2023/01/18 03:11:37;;;;;;;30.70;13.07;;;;;;;;;;4996576;28;20022;-78
2023/01/18 03:14:12;;;;;;;30.43;12.77;;;;;;;;;;4995851;28;20033;-78
2023/01/18 03:16:57;;;;;;;29.80;11.60;;;;;;;;;;4996050;28;20022;-78
2023/01/18 03:22:10;;;;;;;34.93;12.20;;;;;;;;;;5014547;28;20035;-78
2023/01/18 03:24:40;;;;;;;30.60;11.73;;;;;;;;;;4995317;28;20010;-78
2023/01/18 03:35:18;;;;;;;30.07;11.70;;;;;;;;;;5014083;28;20032;-78
2023/01/18 03:37:44;;;;;;;24.70;9.83;;;;;;;;;;4995567;28;20022;-78
2023/01/18 03:40:18;;;;;;;26.87;9.77;;;;;;;;;;4995032;28;20075;-78
2023/01/18 03:42:52;;;;;;;25.03;9.90;;;;;;;;;;4996431;28;20018;-78
2023/01/18 03:45:21;;;;;;;26.97;10.03;;;;;;;;;;4995748;28;20026;-78
2023/01/18 03:47:49;;;;;;;29.20;9.87;;;;;;;;;;5013730;28;20091;-78
2023/01/18 03:50:35;;;;;;;33.07;10.90;;;;;;;;;;4995177;28;20077;-78
2023/01/18 03:53:03;;;;;;;24.33;10.00;;;;;;;;;;4999429;28;20065;-78
2023/01/18 03:55:38;;;;;;;26.13;9.03;;;;;;;;;;4994590;28;20018;-78
2023/01/18 03:58:06;;;;;;;24.83;9.93;;;;;;;;;;4995887;28;20051;-78
2023/01/18 04:00:31;;;;;;;21.37;9.77;;;;;;;;;;5013653;28;21209;-78
2023/01/18 04:02:57;;;;;;;22.57;9.93;;;;;;;;;;4995434;28;20076;-78
2023/01/18 04:05:22;;;;;;;31.70;10.57;;;;;;;;;;5013523;28;20072;-78
2023/01/18 04:07:47;;;;;;;22.70;9.37;;;;;;;;;;4996017;28;20049;-78
2023/01/18 04:10:13;;;;;;;26.97;10.57;;;;;;;;;;5013318;28;20105;-78
2023/01/18 04:12:38;;;;;;;26.93;9.70;;;;;;;;;;5012617;28;20605;-78
2023/01/18 04:15:03;;;;;;;24.83;9.30;;;;;;;;;;5012208;28;20101;-78
2023/01/18 04:17:29;;;;;;;25.43;9.20;;;;;;;;;;5013131;28;20069;-78
2023/01/18 04:19:54;;;;;;;18.93;8.70;;;;;;;;;;5012766;28;20055;-78
2023/01/18 04:22:19;;;;;;;24.47;9.97;;;;;;;;;;5013201;28;20106;-78
2023/01/18 04:24:44;;;;;;;20.43;9.40;;;;;;;;;;5012793;28;20473;-78
2023/01/18 04:27:10;;;;;;;28.30;9.23;;;;;;;;;;4994492;28;20026;-77
2023/01/18 04:29:35;;;;;;;25.47;9.70;;;;;;;;;;4995424;28;20047;-78
2023/01/18 04:32:01;;;;;;;31.13;10.73;;;;;;;;;;4995334;28;20042;-78
2023/01/18 04:34:28;;;;;;;28.67;10.60;;;;;;;;;;5012519;28;20065;-78
2023/01/18 04:36:53;;;;;;;28.20;11.47;;;;;;;;;;4995231;28;20029;-78
2023/01/18 04:39:19;;;;;;;34.43;11.63;;;;;;;;;;5011578;28;20036;-78
2023/01/18 04:41:44;;;;;;;29.30;10.43;;;;;;;;;;5012249;28;20037;-78
2023/01/18 04:44:10;;;;;;;29.87;9.93;;;;;;;;;;5011647;28;20061;-78
2023/01/18 04:46:37;;;;;;;27.70;10.07;;;;;;;;;;5003718;28;20030;-78
2023/01/18 04:49:02;;;;;;;24.00;9.77;;;;;;;;;;4994019;28;20436;-78
2023/01/18 04:51:30;;;;;;;26.93;9.97;;;;;;;;;;5013232;28;20033;-78
2023/01/18 04:53:55;;;;;;;26.47;10.33;;;;;;;;;;5012076;28;20084;-78
2023/01/18 04:56:20;;;;;;;26.47;9.93;;;;;;;;;;5012588;28;20424;-78
2023/01/18 04:58:45;;;;;;;25.67;9.93;;;;;;;;;;5012474;28;20453;-78
2023/01/18 05:01:12;;;;;;;25.63;10.30;;;;;;;;;;5011619;28;20075;-77
2023/01/18 05:03:37;;;;;;;22.57;9.10;;;;;;;;;;5012353;28;20022;-78
2023/01/18 05:06:07;;;;;;;25.63;10.17;;;;;;;;;;4994664;28;20037;-78
2023/01/18 05:08:32;;;;;;;21.40;9.37;;;;;;;;;;4994454;28;20056;-78
2023/01/18 05:11:02;;;;;;;26.03;9.97;;;;;;;;;;4994849;28;20049;-78
2023/01/18 05:13:27;;;;;;;21.00;9.23;;;;;;;;;;5011215;28;20021;-78
2023/01/18 05:15:52;;;;;;;22.73;8.80;;;;;;;;;;4994573;28;20118;-78
2023/01/18 05:18:18;;;;;;;17.37;8.67;;;;;;;;;;4994368;28;20026;-78
2023/01/18 05:20:43;;;;;;;21.60;9.53;;;;;;;;;;5012379;28;20081;-78
2023/01/18 05:23:09;;;;;;;22.30;9.77;;;;;;;;;;5012335;28;20037;-78
2023/01/18 05:25:35;;;;;;;23.70;9.23;;;;;;;;;;5011034;28;20022;-78
2023/01/18 05:28:00;;;;;;;21.00;9.13;;;;;;;;;;4994450;28;20022;-78
2023/01/18 05:30:25;;;;;;;24.13;9.27;;;;;;;;;;5012218;28;20144;-78
2023/01/18 05:32:50;;;;;;;28.37;9.30;;;;;;;;;;5012342;28;20025;-78
2023/01/18 05:35:16;;;;;;;21.53;9.60;;;;;;;;;;5011593;28;20045;-78
2023/01/18 05:37:41;;;;;;;21.53;9.33;;;;;;;;;;4993627;28;20036;-78
2023/01/18 05:40:08;;;;;;;20.23;9.10;;;;;;;;;;5011688;28;20175;-78
2023/01/18 05:42:33;;;;;;;22.70;8.90;;;;;;;;;;5011972;28;20092;-78
2023/01/18 05:44:58;;;;;;;23.80;10.10;;;;;;;;;;5004754;28;20049;-78
2023/01/18 05:47:23;;;;;;;18.53;9.17;;;;;;;;;;4994266;28;20505;-78
2023/01/18 05:49:48;;;;;;;23.27;9.43;;;;;;;;;;5010653;28;20025;-78
2023/01/18 05:52:15;;;;;;;21.43;9.87;;;;;;;;;;5011621;28;20497;-78
2023/01/18 05:54:41;;;;;;;26.17;9.80;;;;;;;;;;4993632;28;20111;-78
2023/01/18 05:57:06;;;;;;;26.63;10.20;;;;;;;;;;5011537;28;20039;-78
2023/01/18 05:59:31;;;;;;;22.63;10.17;;;;;;;;;;4993909;28;20380;-78
2023/01/18 06:01:56;;;;;;;21.83;9.20;;;;;;;;;;4993623;28;20021;-77
2023/01/18 06:04:22;;;;;;;27.50;11.13;;;;;;;;;;5000084;28;20017;-78
2023/01/18 06:06:47;;;;;;;24.53;10.80;;;;;;;;;;5011178;28;20025;-77
2023/01/18 06:09:12;;;;;;;25.80;9.80;;;;;;;;;;4996332;28;20018;-78
2023/01/18 06:11:38;;;;;;;21.30;9.20;;;;;;;;;;4989083;28;20053;-78
2023/01/18 06:14:03;;;;;;;22.47;10.17;;;;;;;;;;5010486;28;20018;-78
2023/01/18 06:16:28;;;;;;;21.63;10.43;;;;;;;;;;5003616;28;20063;-78
2023/01/18 06:18:53;;;;;;;19.83;9.23;;;;;;;;;;5010833;28;20022;-78
2023/01/18 06:21:19;;;;;;;22.40;9.47;;;;;;;;;;4993592;28;20492;-78
2023/01/18 06:23:44;;;;;;;23.10;9.50;;;;;;;;;;4993160;28;20241;-78
2023/01/18 06:26:09;;;;;;;25.97;9.97;;;;;;;;;;4989757;28;20025;-79
2023/01/18 06:28:34;;;;;;;25.43;9.60;;;;;;;;;;5005059;28;20259;-78
2023/01/18 06:31:03;;;;;;;25.63;9.00;;;;;;;;;;5004758;28;20048;-78
2023/01/18 06:33:28;;;;;;;21.03;8.90;;;;;;;;;;5006584;28;20128;-77
2023/01/18 06:35:53;;;;;;;20.77;9.17;;;;;;;;;;5009059;28;20469;-78
2023/01/18 06:38:19;;;;;;;23.37;9.30;;;;;;;;;;4997045;28;20067;-78
2023/01/18 06:40:44;;;;;;;20.93;8.83;;;;;;;;;;4996913;28;20038;-78
2023/01/18 06:43:12;;;;;;;21.17;9.93;;;;;;;;;;4996931;28;20026;-78
2023/01/18 06:45:38;;;;;;;25.17;9.23;;;;;;;;;;5013847;28;20092;-78
2023/01/18 06:48:03;;;;;;;31.97;9.60;;;;;;;;;;5002128;28;20045;-78
2023/01/18 06:50:28;;;;;;;25.53;10.70;;;;;;;;;;5013948;28;20116;-78
2023/01/18 06:52:54;;;;;;;154.97;43.83;;;;;;;;;;5003017;28;20088;-78
2023/01/18 06:55:20;;;;;;;94.30;34.43;;;;;;;;;;4994479;28;20032;-78
2023/01/18 06:57:46;;;;;;;52.07;20.63;;;;;;;;;;4995966;28;20030;-78
2023/01/18 07:00:12;;;;;;;35.00;16.13;;;;;;;;;;4996866;28;20156;-78
2023/01/18 07:02:37;;;;;;;24.63;10.70;;;;;;;;;;4995080;28;20021;-79
2023/01/18 07:05:03;;;;;;;22.30;10.17;;;;;;;;;;5013128;28;20097;-78
2023/01/18 07:07:28;;;;;;;19.87;8.63;;;;;;;;;;5000952;28;20030;-78
2023/01/18 07:09:53;;;;;;;21.50;9.57;;;;;;;;;;5012500;28;20029;-77
2023/01/18 07:12:19;;;;;;;21.97;9.17;;;;;;;;;;5013946;28;20061;-78
2023/01/18 07:14:44;;;;;;;20.13;9.33;;;;;;;;;;5011728;28;20122;-77
2023/01/18 07:17:09;;;;;;;22.43;8.90;;;;;;;;;;5013601;28;20461;-78
2023/01/18 07:19:35;;;;;;;25.83;9.13;;;;;;;;;;4999188;28;20040;-78
2023/01/18 07:22:00;;;;;;;19.10;9.03;;;;;;;;;;5000310;28;20132;-78
2023/01/18 07:24:26;;;;;;;18.20;8.07;;;;;;;;;;4996287;28;20032;-78
2023/01/18 07:26:51;;;;;;;18.77;8.03;;;;;;;;;;5012651;28;20124;-78
2023/01/18 07:29:16;;;;;;;23.67;9.97;;;;;;;;;;5003750;28;20030;-78
2023/01/18 07:31:42;;;;;;;31.30;13.70;;;;;;;;;;4997466;28;20021;-80
2023/01/18 07:34:08;;;;;;;27.53;12.10;;;;;;;;;;5012639;28;20030;-79
2023/01/18 07:36:33;;;;;;;27.03;10.10;;;;;;;;;;5002812;28;20070;-79
2023/01/18 07:39:01;;;;;;;20.87;9.53;;;;;;;;;;5004135;28;20048;-79
2023/01/18 07:41:26;;;;;;;26.80;9.73;;;;;;;;;;5010800;28;20096;-79
2023/01/18 07:43:52;;;;;;;38.50;16.57;;;;;;;;;;4993570;28;20014;-79
2023/01/18 07:46:19;;;;;;;44.27;16.10;;;;;;;;;;4994876;28;20085;-80
2023/01/18 07:48:45;;;;;;;29.27;11.40;;;;;;;;;;4996256;28;20052;-80
2023/01/18 07:51:10;;;;;;;21.90;10.23;;;;;;;;;;4995077;28;20117;-80
2023/01/18 07:53:36;;;;;;;21.40;9.80;;;;;;;;;;5012881;28;20034;-80
2023/01/18 07:56:03;;;;;;;19.20;9.23;;;;;;;;;;5004663;28;20084;-80
2023/01/18 07:58:29;;;;;;;23.73;9.40;;;;;;;;;;4998461;28;20053;-79
2023/01/18 08:00:54;;;;;;;23.13;10.63;;;;;;;;;;5013659;28;20022;-80
2023/01/18 08:03:19;;;;;;;31.43;13.50;;;;;;;;;;5010837;28;20014;-79
2023/01/18 08:05:45;;;;;;;25.20;11.77;;;;;;;;;;5011973;28;20083;-79
2023/01/18 08:08:12;;;;;;;25.50;10.10;;;;;;;;;;5012107;28;20719;-79
2023/01/18 08:10:37;;;;;;;22.90;9.63;;;;;;;;;;5013731;28;20520;-79
2023/01/18 08:13:03;;;;;;;19.37;9.17;;;;;;;;;;4994493;28;20116;-79
2023/01/18 08:15:28;;;;;;;26.57;11.20;;;;;;;;;;5012978;28;20068;-80
2023/01/18 08:17:54;;;;;;;29.40;11.70;;;;;;;;;;5013228;28;20030;-79
2023/01/18 08:20:20;;;;;;;23.90;11.00;;;;;;;;;;5013229;28;20076;-80
2023/01/18 08:22:46;;;;;;;29.00;11.10;;;;;;;;;;4996006;28;20022;-79
2023/01/18 08:25:11;;;;;;;26.57;10.20;;;;;;;;;;4994676;28;20365;-80
2023/01/18 08:27:37;;;;;;;25.73;10.93;;;;;;;;;;4995848;28;20408;-79
2023/01/18 08:30:03;;;;;;;22.43;9.97;;;;;;;;;;4995400;28;20084;-79
2023/01/18 08:32:28;;;;;;;29.27;12.37;;;;;;;;;;5013335;28;20457;-79
2023/01/18 08:34:54;;;;;;;23.30;10.10;;;;;;;;;;4994738;28;20469;-79
2023/01/18 08:37:22;;;;;;;26.10;10.50;;;;;;;;;;5012971;28;20499;-79
2023/01/18 08:39:47;;;;;;;23.17;9.83;;;;;;;;;;5012905;28;20032;-79
2023/01/18 08:42:12;;;;;;;24.27;10.60;;;;;;;;;;4995049;28;20457;-80
2023/01/18 08:44:38;;;;;;;24.20;10.33;;;;;;;;;;4990158;28;20025;-80
2023/01/18 08:47:03;;;;;;;23.17;10.03;;;;;;;;;;5009522;28;20026;-79
2023/01/18 08:49:28;;;;;;;26.63;10.87;;;;;;;;;;5012462;28;20068;-79
2023/01/18 08:51:53;;;;;;;26.33;11.23;;;;;;;;;;4995053;28;20021;-79
2023/01/18 08:54:18;;;;;;;23.23;10.87;;;;;;;;;;4995081;28;20061;-80
2023/01/18 08:56:44;;;;;;;32.10;11.37;;;;;;;;;;4995145;28;20529;-79
2023/01/18 08:59:09;;;;;;;26.03;11.30;;;;;;;;;;4993466;28;20018;-80
2023/01/18 09:01:34;;;;;;;28.43;10.17;;;;;;;;;;5012260;28;20373;-80
2023/01/18 09:03:59;;;;;;;25.13;10.27;;;;;;;;;;4994507;28;20018;-80
2023/01/18 09:06:28;;;;;;;23.73;10.63;;;;;;;;;;5012594;28;20152;-80
2023/01/18 09:08:53;;;;;;;20.83;10.70;;;;;;;;;;5012374;28;20018;-80
2023/01/18 09:11:19;;;;;;;28.03;12.13;;;;;;;;;;4994130;28;20477;-79
2023/01/18 09:13:44;;;;;;;21.50;10.80;;;;;;;;;;4994557;28;20026;-80
2023/01/18 09:16:10;;;;;;;34.03;12.70;;;;;;;;;;5012615;28;20032;-80
2023/01/18 09:18:36;;;;;;;27.27;11.60;;;;;;;;;;4994537;28;20061;-80
2023/01/18 09:21:05;;;;;;;25.67;11.10;;;;;;;;;;5012804;28;20088;-79
2023/01/18 09:23:30;;;;;;;29.73;12.10;;;;;;;;;;4993745;28;20036;-80
2023/01/18 09:26:03;;;;;;;26.57;11.00;;;;;;;;;;5012214;28;20022;-79
2023/01/18 09:28:28;;;;;;;23.63;10.33;;;;;;;;;;4994304;28;20047;-80
2023/01/18 09:30:54;;;;;;;25.33;11.70;;;;;;;;;;4994702;28;20033;-80
2023/01/18 09:33:19;;;;;;;24.97;12.33;;;;;;;;;;4993521;28;20037;-80
2023/01/18 09:35:46;;;;;;;26.27;12.50;;;;;;;;;;5009750;28;20530;-80
2023/01/18 09:38:11;;;;;;;23.07;11.20;;;;;;;;;;4994198;28;20021;-80
2023/01/18 09:40:42;;;;;;;28.30;11.53;;;;;;;;;;4993983;28;20496;-81
2023/01/18 09:43:15;;;;;;;31.00;12.40;;;;;;;;;;4993914;28;20040;-80
2023/01/18 09:45:43;;;;;;;26.10;12.73;;;;;;;;;;4980664;28;20385;-80
2023/01/18 09:48:15;;;;;;;24.50;11.67;;;;;;;;;;4994537;28;20030;-80
2023/01/18 09:50:44;;;;;;;29.25;12.75;;;;;;;;;;4994022;28;20022;-80
2023/01/18 09:53:12;;;;;;;25.00;11.37;;;;;;;;;;4994099;28;20470;-80
2023/01/18 09:55:46;;;;;;;23.50;10.50;;;;;;;;;;4993135;28;20021;-80
2023/01/18 09:58:26;;;;;;;26.63;10.77;;;;;;;;;;5011714;28;20400;-80
2023/01/18 10:00:53;;;;;;;22.40;10.63;;;;;;;;;;4994440;28;20021;-80
2023/01/18 10:03:24;;;;;;;24.43;10.50;;;;;;;;;;5011743;28;20028;-80
2023/01/18 10:06:08;;;;;;;24.87;10.53;;;;;;;;;;4994010;28;20029;-80
2023/01/18 10:08:49;;;;;;;18.67;10.53;;;;;;;;;;4993195;28;20026;-80
2023/01/18 10:11:26;;;;;;;19.17;8.87;;;;;;;;;;5009274;28;20026;-80
2023/01/18 10:14:02;;;;;;;20.70;9.63;;;;;;;;;;4998060;28;20082;-81
2023/01/18 10:16:27;;;;;;;20.13;9.47;;;;;;;;;;4997876;28;20026;-80
2023/01/18 10:18:56;;;;;;;21.03;9.47;;;;;;;;;;4997974;28;20393;-80
2023/01/18 10:21:21;;;;;;;20.97;9.70;;;;;;;;;;4996528;28;20025;-80
2023/01/18 10:24:03;;;;;;;18.60;8.63;;;;;;;;;;4997849;28;20018;-80
2023/01/18 10:26:29;;;;;;;23.27;8.93;;;;;;;;;;4997760;28;20014;-80
2023/01/18 10:29:07;;;;;;;24.17;9.50;;;;;;;;;;4996561;28;20029;-80
2023/01/18 10:31:32;;;;;;;20.60;10.23;;;;;;;;;;4997765;28;20101;-80
2023/01/18 10:33:58;;;;;;;19.17;9.67;;;;;;;;;;5015446;28;20469;-80
2023/01/18 10:36:37;;;;;;;22.53;10.90;;;;;;;;;;4997740;28;20026;-80
2023/01/18 10:39:06;;;;;;;22.03;9.57;;;;;;;;;;5002246;28;20105;-80
2023/01/18 10:41:33;;;;;;;21.77;8.80;;;;;;;;;;4997641;28;20115;-80
2023/01/18 10:43:58;;;;;;;32.23;9.63;;;;;;;;;;4997069;28;20032;-80
2023/01/18 10:46:25;;;;;;;23.60;10.00;;;;;;;;;;4997225;28;20477;-80
2023/01/18 10:48:51;;;;;;;19.00;9.40;;;;;;;;;;4995356;28;20108;-80
2023/01/18 10:51:45;;;;;;;22.73;9.43;;;;;;;;;;5015305;28;20100;-80
2023/01/18 10:54:16;;;;;;;22.13;8.77;;;;;;;;;;4994419;28;20116;-80
2023/01/18 10:56:41;;;;;;;20.17;9.67;;;;;;;;;;4993303;28;20401;-80
2023/01/18 10:59:23;;;;;;;29.97;9.03;;;;;;;;;;4996937;28;20022;-80
2023/01/18 11:01:51;;;;;;;24.88;9.82;;;;;;;;;;5015260;28;20089;-80
2023/01/18 11:04:21;;;;;;;22.07;8.97;;;;;;;;;;4997099;28;20369;-81
2023/01/18 11:06:48;;;;;;;20.37;9.57;;;;;;;;;;4996625;28;20405;-80
2023/01/18 11:09:32;;;;;;;19.57;9.17;;;;;;;;;;5014748;28;20022;-80
2023/01/18 11:15:13;;;;;;;23.60;9.07;;;;;;;;;;5014755;28;20017;-80
2023/01/18 11:17:59;;;;;;;15.47;7.80;;;;;;;;;;5014303;28;20025;-80
2023/01/18 11:20:33;;;;;;;19.00;9.40;;;;;;;;;;4996896;28;20414;-80
2023/01/18 11:23:00;;;;;;;16.10;7.57;;;;;;;;;;5014258;28;20029;-80
2023/01/18 11:25:36;;;;;;;17.53;8.63;;;;;;;;;;5014447;28;20537;-80
2023/01/18 11:28:03;;;;;;;24.03;8.50;;;;;;;;;;4996610;28;20029;-80
2023/01/18 11:30:28;;;;;;;15.30;7.50;;;;;;;;;;4995745;28;20026;-80
2023/01/18 11:32:53;;;;;;;16.60;7.73;;;;;;;;;;5014473;28;20296;-80
2023/01/18 11:35:29;;;;;;;16.07;7.07;;;;;;;;;;4996279;28;20076;-80
2023/01/18 11:37:59;;;;;;;17.20;7.63;;;;;;;;;;4996205;28;20076;-80
2023/01/18 11:40:26;;;;;;;16.37;7.10;;;;;;;;;;5012848;28;20439;-80
2023/01/18 11:42:57;;;;;;;14.40;7.30;;;;;;;;;;4996574;28;20018;-80
2023/01/18 11:45:24;;;;;;;18.07;6.87;;;;;;;;;;4989427;28;20017;-80
2023/01/18 11:47:54;;;;;;;15.93;6.90;;;;;;;;;;4996480;28;20069;-80
2023/01/18 11:50:28;;;;;;;15.47;6.43;;;;;;;;;;4995804;28;20028;-80
2023/01/18 11:52:56;;;;;;;19.07;6.50;;;;;;;;;;4995360;28;20080;-80
2023/01/18 11:55:24;;;;;;;11.87;6.60;;;;;;;;;;4995638;28;20030;-80
2023/01/18 11:57:50;;;;;;;18.57;6.63;;;;;;;;;;5013811;28;20060;-80
2023/01/18 12:00:16;;;;;;;14.43;6.03;;;;;;;;;;4996027;28;20022;-80
2023/01/18 12:02:44;;;;;;;13.00;5.90;;;;;;;;;;4996321;28;20105;-80
2023/01/18 12:05:32;;;;;;;16.37;5.90;;;;;;;;;;4994970;28;20076;-80
2023/01/18 12:08:16;;;;;;;13.57;5.13;;;;;;;;;;5013302;28;20028;-80
2023/01/18 12:10:56;;;;;;;12.93;6.03;;;;;;;;;;5013611;28;20020;-80
2023/01/18 12:13:31;;;;;;;20.50;7.07;;;;;;;;;;4982400;28;20029;-80
2023/01/18 12:16:07;;;;;;;17.73;6.40;;;;;;;;;;4995231;28;20029;-80
2023/01/18 12:18:51;;;;;;;15.63;6.80;;;;;;;;;;4999050;28;20026;-80
2023/01/18 12:21:29;;;;;;;13.47;5.87;;;;;;;;;;4995806;28;20552;-80
2023/01/18 12:23:57;;;;;;;14.47;5.30;;;;;;;;;;5013461;28;20045;-80
2023/01/18 12:26:37;;;;;;;13.37;5.63;;;;;;;;;;4995187;28;20437;-80
2023/01/18 12:29:08;;;;;;;9.53;4.20;;;;;;;;;;5012574;28;20188;-80
2023/01/18 12:31:40;;;;;;;10.50;4.07;;;;;;;;;;4995601;28;20449;-80
2023/01/18 12:34:12;;;;;;;8.70;3.20;;;;;;;;;;4994993;28;20053;-80
2023/01/18 12:36:56;;;;;;;7.07;3.00;;;;;;;;;;4995341;28;20087;-80
2023/01/18 12:39:42;;;;;;;9.80;4.03;;;;;;;;;;4995029;28;20119;-80
2023/01/18 12:42:20;;;;;;;7.73;3.57;;;;;;;;;;5011705;28;20030;-80
2023/01/18 12:44:45;;;;;;;9.77;3.50;;;;;;;;;;4990358;28;20374;-80
2023/01/18 12:47:33;;;;;;;8.60;3.87;;;;;;;;;;4991753;28;20022;-80
2023/01/18 12:50:01;;;;;;;9.70;3.40;;;;;;;;;;5003673;28;20105;-80
2023/01/18 12:52:26;;;;;;;10.57;3.40;;;;;;;;;;5011606;28;20022;-80
2023/01/18 12:54:56;;;;;;;6.77;3.53;;;;;;;;;;4995122;28;20168;-80
2023/01/18 12:57:23;;;;;;;8.47;2.83;;;;;;;;;;4993979;28;20045;-80
2023/01/18 13:00:00;;;;;;;9.30;3.07;;;;;;;;;;4994665;28;20028;-80
2023/01/18 13:02:33;;;;;;;11.07;2.83;;;;;;;;;;4993949;28;20026;-79
2023/01/18 13:05:04;;;;;;;6.43;2.73;;;;;;;;;;4994830;28;20022;-80
2023/01/18 13:07:36;;;;;;;6.90;2.53;;;;;;;;;;5012707;28;20026;-80
2023/01/18 13:10:03;;;;;;;4.80;2.42;;;;;;;;;;4982049;28;20025;-80
2023/01/18 13:12:28;;;;;;;8.13;2.37;;;;;;;;;;4994416;28;20022;-80
2023/01/18 13:15:03;;;;;;;7.47;2.77;;;;;;;;;;4994689;28;20109;-80
2023/01/18 13:17:47;;;;;;;8.40;3.77;;;;;;;;;;5012453;28;20022;-80
2023/01/18 13:20:18;;;;;;;6.40;2.80;;;;;;;;;;4981293;28;20026;-80
2023/01/18 13:23:02;;;;;;;5.77;2.43;;;;;;;;;;4994844;28;20022;-80
2023/01/18 13:25:34;;;;;;;6.73;2.50;;;;;;;;;;4990183;28;20087;-80
2023/01/18 13:28:01;;;;;;;5.60;2.42;;;;;;;;;;4994541;28;20393;-79
2023/01/18 13:30:27;;;;;;;6.43;2.90;;;;;;;;;;4994493;28;20480;-80
2023/01/18 13:32:52;;;;;;;6.10;2.37;;;;;;;;;;4994360;28;20030;-80
2023/01/18 13:35:21;;;;;;;7.43;2.70;;;;;;;;;;4994218;28;20033;-80
2023/01/18 13:37:48;;;;;;;6.63;2.87;;;;;;;;;;4992684;28;20030;-80
2023/01/18 13:40:31;;;;;;;5.07;2.27;;;;;;;;;;4993923;28;20037;-80
2023/01/18 13:42:57;;;;;;;7.27;3.17;;;;;;;;;;4994428;28;20029;-80
2023/01/18 13:45:24;;;;;;;6.40;2.87;;;;;;;;;;4993623;28;20010;-80
2023/01/18 13:47:57;;;;;;;9.07;2.83;;;;;;;;;;4993372;28;20041;-80
2023/01/18 13:50:33;;;;;;;5.43;2.23;;;;;;;;;;4993922;28;20370;-80
2023/01/18 13:53:08;;;;;;;7.80;3.57;;;;;;;;;;5011959;28;20112;-80
2023/01/18 13:55:33;;;;;;;11.80;3.20;;;;;;;;;;4993954;28;20529;-80
2023/01/18 13:58:00;;;;;;;7.83;3.50;;;;;;;;;;4993203;28;20116;-80
2023/01/18 14:00:25;;;;;;;9.43;3.40;;;;;;;;;;4993790;28;20373;-80
2023/01/18 14:02:55;;;;;;;4.97;2.73;;;;;;;;;;4994017;28;20020;-80
2023/01/18 14:05:29;;;;;;;7.10;3.00;;;;;;;;;;4994100;28;20022;-80
2023/01/18 14:07:58;;;;;;;8.17;3.17;;;;;;;;;;5011750;28;20037;-82
2023/01/18 14:10:30;;;;;;;9.53;3.47;;;;;;;;;;4993634;28;20041;-82
2023/01/18 14:12:56;;;;;;;6.25;3.13;;;;;;;;;;4994139;28;20346;-82
2023/01/18 14:15:23;;;;;;;6.10;3.73;;;;;;;;;;4994242;28;20040;-82
2023/01/18 14:17:48;;;;;;;8.03;2.83;;;;;;;;;;4993770;28;20026;-81
2023/01/18 14:20:32;;;;;;;8.27;3.50;;;;;;;;;;5011558;28;20323;-82
2023/01/18 14:23:16;;;;;;;8.23;3.50;;;;;;;;;;5011078;28;20420;-82
2023/01/18 14:25:53;;;;;;;9.43;3.40;;;;;;;;;;4994005;28;20045;-82
2023/01/18 14:28:22;;;;;;;8.03;3.13;;;;;;;;;;4993730;28;20539;-80
2023/01/18 14:30:47;;;;;;;11.23;3.17;;;;;;;;;;4993877;28;20046;-80
2023/01/18 14:33:12;;;;;;;8.80;3.40;;;;;;;;;;4993788;28;20025;-79
2023/01/18 14:35:38;;;;;;;8.83;3.33;;;;;;;;;;4992931;28;20034;-80
2023/01/18 14:38:11;;;;;;;10.30;3.47;;;;;;;;;;4993677;28;20076;-80
2023/01/18 14:40:36;;;;;;;8.60;3.70;;;;;;;;;;4993585;28;20029;-80
2023/01/18 14:43:04;;;;;;;7.90;3.47;;;;;;;;;;4993728;28;20118;-80
2023/01/18 14:45:29;;;;;;;6.33;3.13;;;;;;;;;;5003457;28;20399;-80
2023/01/18 14:47:56;;;;;;;9.50;3.20;;;;;;;;;;4993927;28;20117;-80
2023/01/18 14:50:25;;;;;;;8.13;3.23;;;;;;;;;;4993750;28;20026;-80
2023/01/18 14:52:51;;;;;;;10.10;3.90;;;;;;;;;;5011481;28;20117;-80
2023/01/18 14:55:24;;;;;;;6.93;3.30;;;;;;;;;;4993327;28;20472;-80
2023/01/18 14:57:50;;;;;;;8.03;3.70;;;;;;;;;;4993819;28;20025;-80
2023/01/18 15:00:16;;;;;;;10.07;2.93;;;;;;;;;;4996917;28;20029;-80
2023/01/18 15:02:42;;;;;;;7.07;3.57;;;;;;;;;;4997116;28;20108;-80
2023/01/18 15:05:09;;;;;;;5.73;3.13;;;;;;;;;;4997054;28;20473;-80
2023/01/18 15:07:37;;;;;;;8.47;3.10;;;;;;;;;;4996529;28;20026;-80